createdAt,value
2022-11-02T00:01:27.669Z,68.71
2022-11-02T00:03:57.492Z,68.59
2022-11-02T00:06:25.582Z,68.76
2022-11-02T00:08:53.754Z,68.64
2022-11-02T00:11:21.760Z,68.36
2022-11-02T00:13:50.192Z,66.88
2022-11-02T00:16:20.419Z,66.59
2022-11-02T00:18:52.512Z,66.18
2022-11-02T00:21:26.985Z,66.85
2022-11-02T00:23:57.253Z,66.55
2022-11-02T00:26:26.105Z,66.39
2022-11-02T00:28:54.525Z,66.09
2022-11-02T00:31:22.607Z,67.04
2022-11-02T00:33:51.229Z,67.97
2022-11-02T00:36:19.222Z,68.02
2022-11-02T00:38:49.080Z,68.29
2022-11-02T00:41:19.531Z,67.54
2022-11-02T00:43:47.890Z,67.45
2022-11-02T00:46:16.031Z,67.49
2022-11-02T00:48:44.058Z,67.75
2022-11-02T00:51:13.103Z,69.17
2022-11-02T00:53:43.467Z,69.00
2022-11-02T00:56:13.361Z,66.96
2022-11-02T00:58:43.672Z,66.54
2022-11-02T01:01:13.088Z,65.88
2022-11-02T01:03:41.282Z,66.40
2022-11-02T01:06:12.368Z,66.95
2022-11-02T01:08:40.717Z,68.18
2022-11-02T01:11:17.923Z,68.53
2022-11-02T01:13:47.055Z,68.56
2022-11-02T01:16:16.281Z,68.11
2022-11-02T01:18:44.779Z,69.37
2022-11-02T01:21:13.906Z,69.30
2022-11-02T01:23:42.007Z,69.22
2022-11-02T01:26:12.306Z,69.52
2022-11-02T01:28:43.504Z,69.06
2022-11-02T01:31:12.703Z,67.87
2022-11-02T01:33:45.249Z,68.22
2022-11-02T01:36:15.964Z,68.49
2022-11-02T01:38:44.140Z,68.69
2022-11-02T01:41:13.690Z,69.22
2022-11-02T01:43:45.086Z,68.32
2022-11-02T01:46:19.957Z,68.28
2022-11-02T01:48:51.455Z,68.30
2022-11-02T01:51:24.003Z,68.72
2022-11-02T01:53:53.729Z,69.24
2022-11-02T01:56:25.080Z,70.13
2022-11-02T01:58:57.916Z,68.47
2022-11-02T02:01:27.094Z,68.70
2022-11-02T02:03:57.350Z,68.47
2022-11-02T02:06:26.984Z,68.14
2022-11-02T02:09:00.174Z,67.48
2022-11-02T02:11:32.766Z,68.17
2022-11-02T02:14:07.544Z,68.30
2022-11-02T02:17:15.473Z,68.09
2022-11-02T02:19:51.591Z,67.95
2022-11-02T02:22:57.539Z,67.62
2022-11-02T02:25:51.834Z,68.37
2022-11-02T02:28:30.522Z,68.41
2022-11-02T02:31:03.677Z,67.82
2022-11-02T02:33:34.693Z,68.03
2022-11-02T02:36:10.561Z,67.84
2022-11-02T02:38:46.660Z,67.37
2022-11-02T02:41:20.531Z,66.85
2022-11-02T02:43:53.201Z,66.42
2022-11-02T02:46:25.175Z,66.70
2022-11-02T02:48:57.840Z,65.86
2022-11-02T02:51:29.689Z,65.98
2022-11-02T02:54:02.010Z,65.89
2022-11-02T02:56:33.122Z,66.92
2022-11-02T02:59:06.246Z,66.06
2022-11-02T03:01:35.158Z,66.76
2022-11-02T03:04:03.755Z,67.21
2022-11-02T03:06:33.981Z,65.98
2022-11-02T03:09:13.755Z,66.36
2022-11-02T03:12:04.052Z,65.77
2022-11-02T03:14:49.889Z,65.84
2022-11-02T03:17:27.108Z,65.15
2022-11-02T03:20:02.850Z,65.26
2022-11-02T03:22:35.376Z,65.16
2022-11-02T03:25:15.047Z,65.51
2022-11-02T03:27:52.167Z,65.32
2022-11-02T03:30:24.201Z,65.53
2022-11-02T03:33:01.300Z,65.57
2022-11-02T03:35:36.747Z,65.73
2022-11-02T03:38:12.192Z,65.51
2022-11-02T03:40:45.130Z,65.04
2022-11-02T03:43:16.028Z,64.76
2022-11-02T03:45:50.627Z,65.39
2022-11-02T03:48:20.538Z,64.97
2022-11-02T03:50:51.942Z,65.81
2022-11-02T03:53:28.153Z,66.75
2022-11-02T03:56:08.057Z,66.80
2022-11-02T03:58:38.280Z,65.73
2022-11-02T04:01:09.294Z,64.91
2022-11-02T04:03:43.913Z,65.43
2022-11-02T04:06:12.923Z,64.97
2022-11-02T04:08:43.889Z,65.80
2022-11-02T04:11:30.850Z,64.76
2022-11-02T04:14:21.828Z,65.17
2022-11-02T04:17:12.636Z,65.52
2022-11-02T04:19:47.021Z,65.55
2022-11-02T04:22:35.528Z,64.71
2022-11-02T04:25:18.760Z,64.61
2022-11-02T04:28:16.544Z,65.63
2022-11-02T04:31:04.969Z,65.99
2022-11-02T04:33:39.051Z,66.08
2022-11-02T04:36:10.572Z,65.20
2022-11-02T04:38:42.760Z,65.93
2022-11-02T04:41:43.195Z,65.53
2022-11-02T04:44:34.155Z,65.11
2022-11-02T04:47:10.318Z,64.64
2022-11-02T04:49:39.805Z,64.50
2022-11-02T04:52:11.802Z,66.17
2022-11-02T04:54:45.957Z,65.36
2022-11-02T04:57:13.980Z,65.98
2022-11-02T04:59:42.054Z,66.31
2022-11-02T05:02:10.225Z,65.50
2022-11-02T05:04:40.518Z,65.42
2022-11-02T05:07:09.771Z,64.89
2022-11-02T05:09:38.146Z,64.69
2022-11-02T05:12:07.064Z,64.67
2022-11-02T05:14:35.694Z,64.50
2022-11-02T05:17:04.292Z,65.30
2022-11-02T05:19:33.598Z,65.82
2022-11-02T05:22:04.710Z,65.83
2022-11-02T05:24:33.209Z,66.17
2022-11-02T05:27:02.204Z,66.90
2022-11-02T05:29:33.108Z,66.58
2022-11-02T05:32:01.379Z,66.14
2022-11-02T05:34:29.532Z,65.38
2022-11-02T05:36:57.816Z,65.32
2022-11-02T05:39:27.636Z,65.37
2022-11-02T05:41:55.631Z,64.98
2022-11-02T05:44:23.775Z,65.45
2022-11-02T05:46:52.088Z,65.74
2022-11-02T05:49:20.072Z,65.56
2022-11-02T05:51:49.178Z,65.13
2022-11-02T05:54:17.220Z,65.17
2022-11-02T05:56:46.741Z,64.31
2022-11-02T05:59:14.898Z,64.49
2022-11-02T06:01:42.959Z,65.76
2022-11-02T06:04:11.224Z,66.99
2022-11-02T06:06:39.717Z,68.34
2022-11-02T06:09:08.091Z,67.46
2022-11-02T06:11:36.242Z,67.36
2022-11-02T06:14:05.844Z,66.39
2022-11-02T06:16:33.880Z,65.51
2022-11-02T06:19:01.841Z,66.56
2022-11-02T06:21:30.110Z,67.07
2022-11-02T06:23:59.016Z,67.65
2022-11-02T06:26:27.044Z,67.84
2022-11-02T06:28:54.948Z,67.73
2022-11-02T06:31:24.304Z,66.51
2022-11-02T06:33:52.316Z,65.54
2022-11-02T06:36:20.252Z,65.38
2022-11-02T06:38:48.618Z,65.22
2022-11-02T06:41:16.540Z,65.87
2022-11-02T06:43:44.522Z,66.03
2022-11-02T06:46:12.730Z,66.83
2022-11-02T06:48:42.101Z,67.74
2022-11-02T06:51:10.089Z,68.22
2022-11-02T06:53:37.994Z,70.14
2022-11-02T06:56:06.633Z,62.09
2022-11-02T06:58:35.136Z,56.60
2022-11-02T07:01:08.248Z,53.85
2022-11-02T07:03:37.155Z,47.99
2022-11-02T07:06:12.913Z,44.93
2022-11-02T07:08:42.790Z,42.13
2022-11-02T07:11:14.532Z,42.27
2022-11-02T07:13:42.955Z,43.63
2022-11-02T07:16:10.921Z,42.42
2022-11-02T07:18:38.958Z,39.18
2022-11-02T07:21:11.527Z,41.39
2022-11-02T07:23:39.656Z,44.98
2022-11-02T07:26:07.718Z,51.55
2022-11-02T07:28:36.903Z,52.06
2022-11-02T07:31:05.490Z,46.58
2022-11-02T07:33:33.646Z,43.07
2022-11-02T07:36:05.432Z,43.71
2022-11-02T07:38:35.225Z,43.13
2022-11-02T07:41:03.334Z,44.64
2022-11-02T07:43:31.346Z,42.45
2022-11-02T07:46:16.567Z,44.95
2022-11-02T07:48:44.684Z,45.06
2022-11-02T07:51:12.749Z,45.72
2022-11-02T07:53:42.105Z,44.71
2022-11-02T07:56:10.076Z,42.34
2022-11-02T07:58:38.420Z,44.35
2022-11-02T08:01:06.662Z,40.23
2022-11-02T08:03:35.182Z,38.55
2022-11-02T08:06:04.020Z,41.90
2022-11-02T08:08:32.202Z,42.79
2022-11-02T08:11:07.866Z,43.15
2022-11-02T08:13:38.374Z,39.48
2022-11-02T08:16:06.794Z,38.15
2022-11-02T08:18:34.814Z,38.57
2022-11-02T08:21:03.200Z,39.95
2022-11-02T08:23:31.139Z,35.84
2022-11-02T08:26:00.452Z,34.38
2022-11-02T08:28:32.386Z,35.11
2022-11-02T08:31:00.577Z,35.42
2022-11-02T08:33:28.566Z,34.51
2022-11-02T08:36:02.862Z,33.41
2022-11-02T08:38:31.376Z,33.54
2022-11-02T08:40:59.406Z,34.67
2022-11-02T08:43:27.538Z,37.44
2022-11-02T08:46:15.702Z,37.17
2022-11-02T08:48:44.960Z,36.91
2022-11-02T08:51:12.988Z,36.91
2022-11-02T08:53:43.008Z,34.92
2022-11-02T08:56:14.160Z,36.68
2022-11-02T08:58:42.173Z,35.93
2022-11-02T09:01:11.695Z,37.07
2022-11-02T09:03:39.740Z,37.48
2022-11-02T09:06:07.997Z,38.28
2022-11-02T09:08:36.128Z,38.82
2022-11-02T09:11:05.167Z,39.18
2022-11-02T09:13:33.256Z,38.58
2022-11-02T09:16:02.717Z,37.62
2022-11-02T09:18:32.842Z,36.86
2022-11-02T09:21:03.077Z,37.78
2022-11-02T09:23:31.446Z,37.08
2022-11-02T09:26:00.104Z,36.17
2022-11-02T09:28:28.581Z,37.06
2022-11-02T09:30:56.500Z,35.90
2022-11-02T09:33:24.741Z,35.60
2022-11-02T09:35:54.178Z,36.60
2022-11-02T09:38:22.240Z,36.25
2022-11-02T09:41:02.333Z,38.29
2022-11-02T09:43:42.716Z,38.76
2022-11-02T09:46:14.472Z,43.22
2022-11-02T09:48:46.561Z,45.87
2022-11-02T09:51:19.112Z,45.17
2022-11-02T09:53:56.783Z,44.36
2022-11-02T09:56:25.383Z,44.75
2022-11-02T09:58:59.416Z,44.45
2022-11-02T10:01:39.077Z,45.90
2022-11-02T10:04:34.126Z,44.14
2022-11-02T10:07:10.992Z,46.05
2022-11-02T10:09:46.149Z,44.51
2022-11-02T10:12:16.743Z,43.98
2022-11-02T10:14:54.148Z,44.50
2022-11-02T10:17:26.756Z,44.40
2022-11-02T10:19:57.156Z,44.02
2022-11-02T10:22:30.383Z,43.73
2022-11-02T10:25:01.590Z,42.30
2022-11-02T10:27:33.359Z,40.82
2022-11-02T10:30:06.041Z,41.93
2022-11-02T10:32:37.603Z,43.13
2022-11-02T10:38:15.356Z,42.47
2022-11-02T10:41:01.119Z,47.48
2022-11-02T10:43:48.213Z,51.45
2022-11-02T10:46:31.114Z,53.15
2022-11-02T10:49:09.803Z,53.61
2022-11-02T10:51:37.817Z,51.57
2022-11-02T10:54:13.653Z,51.88
2022-11-02T10:56:43.217Z,53.38
2022-11-02T10:59:15.380Z,52.75
2022-11-02T11:01:48.534Z,53.76
2022-11-02T11:04:25.762Z,53.29
2022-11-02T11:06:56.637Z,53.83
2022-11-02T11:09:29.578Z,54.73
2022-11-02T11:12:00.673Z,55.58
2022-11-02T11:20:33.575Z,54.17
2022-11-02T11:23:19.455Z,54.60
2022-11-02T11:25:58.271Z,54.82
2022-11-02T11:28:29.430Z,54.60
2022-11-02T11:31:10.055Z,52.26
2022-11-02T11:33:54.407Z,48.98
2022-11-02T11:39:02.153Z,48.12
2022-11-02T11:41:34.369Z,48.00
2022-11-02T11:44:03.702Z,49.42
2022-11-02T11:46:43.199Z,49.65
2022-11-02T11:49:31.102Z,50.59
2022-11-02T11:52:05.382Z,49.75
2022-11-02T11:54:34.430Z,48.47
2022-11-02T11:57:28.337Z,44.65
2022-11-02T11:59:59.768Z,44.72
2022-11-02T12:02:30.315Z,44.80
2022-11-02T12:05:01.630Z,46.15
2022-11-02T12:07:56.001Z,50.01
2022-11-02T12:10:34.393Z,48.16
2022-11-02T12:13:20.993Z,46.71
2022-11-02T12:16:04.299Z,45.51
2022-11-02T12:18:43.096Z,47.51
2022-11-02T12:21:23.093Z,46.61
2022-11-02T12:24:13.582Z,47.04
2022-11-02T12:26:55.832Z,48.65
2022-11-02T12:29:43.740Z,46.37
2022-11-02T12:32:29.522Z,45.64
2022-11-02T12:35:28.396Z,45.14
2022-11-02T12:38:14.033Z,47.60
2022-11-02T12:40:56.012Z,49.04
2022-11-02T12:43:36.607Z,49.17
2022-11-02T12:46:18.276Z,49.49
2022-11-02T12:48:54.875Z,49.37
2022-11-02T12:51:25.990Z,49.73
2022-11-02T12:53:58.841Z,50.00
2022-11-02T12:56:32.131Z,51.41
2022-11-02T12:59:01.778Z,52.18
2022-11-02T13:01:36.474Z,50.98
2022-11-02T13:04:14.871Z,50.83
2022-11-02T13:06:47.965Z,51.56
2022-11-02T13:09:24.186Z,52.10
2022-11-02T13:11:57.933Z,50.96
2022-11-02T13:14:31.421Z,51.24
2022-11-02T13:17:07.143Z,52.08
2022-11-02T13:19:39.202Z,51.95
2022-11-02T13:22:11.513Z,51.49
2022-11-02T13:24:44.547Z,51.15
2022-11-02T13:27:36.990Z,50.65
2022-11-02T13:30:15.281Z,52.28
2022-11-02T13:32:48.259Z,51.48
2022-11-02T13:35:21.739Z,53.00
2022-11-02T13:37:55.338Z,52.54
2022-11-02T13:40:26.975Z,51.88
2022-11-02T13:43:31.357Z,51.84
2022-11-02T13:46:09.694Z,51.26
2022-11-02T13:48:50.175Z,50.98
2022-11-02T13:51:26.864Z,50.38
2022-11-02T13:54:00.162Z,51.35
2022-11-02T13:56:30.413Z,52.52
2022-11-02T13:59:02.746Z,52.04
2022-11-02T14:01:33.994Z,52.33
2022-11-02T14:04:07.750Z,52.09
2022-11-02T14:06:48.503Z,52.02
2022-11-02T14:09:25.617Z,51.92
2022-11-02T14:12:13.176Z,51.40
2022-11-02T14:14:41.640Z,52.72
2022-11-02T14:17:14.367Z,52.59
2022-11-02T14:20:32.934Z,51.88
2022-11-02T14:23:37.845Z,50.48
2022-11-02T14:26:06.608Z,50.00
2022-11-02T14:28:43.656Z,48.61
2022-11-02T14:31:38.044Z,48.27
2022-11-02T14:34:35.063Z,48.71
2022-11-02T14:37:47.790Z,48.55
2022-11-02T14:40:30.291Z,47.94
2022-11-02T14:43:14.326Z,48.26
2022-11-02T14:45:58.713Z,48.33
2022-11-02T14:48:31.692Z,47.76
2022-11-02T14:51:04.834Z,47.74
2022-11-02T14:53:36.303Z,47.52
2022-11-02T14:56:06.482Z,47.74
2022-11-02T14:58:38.945Z,47.80
2022-11-02T15:01:14.331Z,47.43
2022-11-02T15:03:43.637Z,47.53
2022-11-02T15:06:19.820Z,47.24
2022-11-02T15:08:54.348Z,46.67
2022-11-02T15:11:46.015Z,47.84
2022-11-02T15:14:33.855Z,46.97
2022-11-02T15:17:02.288Z,47.10
2022-11-02T15:19:43.904Z,47.83
2022-11-02T15:22:36.109Z,48.06
2022-11-02T15:25:10.751Z,48.34
2022-11-02T15:27:43.154Z,48.55
2022-11-02T15:30:15.717Z,48.47
2022-11-02T15:32:48.568Z,48.29
2022-11-02T15:35:20.453Z,48.57
2022-11-02T15:38:11.352Z,48.37
2022-11-02T15:40:49.495Z,48.78
2022-11-02T15:43:48.167Z,48.58
2022-11-02T15:46:30.869Z,49.75
2022-11-02T15:49:08.784Z,50.78
2022-11-02T15:51:47.741Z,51.57
2022-11-02T15:54:30.814Z,51.49
2022-11-02T15:57:12.778Z,52.31
2022-11-02T16:00:13.256Z,52.79
2022-11-02T16:02:44.729Z,53.17
2022-11-02T16:05:25.100Z,53.43
2022-11-02T16:08:11.403Z,53.68
2022-11-02T16:10:40.052Z,54.61
2022-11-02T16:13:17.825Z,54.48
2022-11-02T16:15:48.939Z,53.69
2022-11-02T16:18:29.164Z,54.09
2022-11-02T16:21:01.929Z,53.84
2022-11-02T16:23:50.905Z,53.75
2022-11-02T16:26:23.198Z,54.51
2022-11-02T16:28:53.389Z,54.36
2022-11-02T16:31:25.122Z,54.38
2022-11-02T16:33:55.228Z,54.49
2022-11-02T16:36:25.384Z,53.88
2022-11-02T16:38:59.975Z,53.96
2022-11-02T16:41:29.601Z,54.72
2022-11-02T16:43:59.728Z,54.78
2022-11-02T16:46:41.789Z,54.23
2022-11-02T16:49:19.594Z,54.00
2022-11-02T16:51:53.377Z,53.92
2022-11-02T16:54:31.512Z,53.84
2022-11-02T16:57:10.200Z,53.34
2022-11-02T16:59:49.748Z,53.94
2022-11-02T17:02:21.011Z,54.20
2022-11-02T17:07:28.702Z,54.90
2022-11-02T17:09:59.509Z,55.16
2022-11-02T17:12:33.760Z,56.01
2022-11-02T17:15:04.606Z,55.86
2022-11-02T17:17:38.205Z,55.56
2022-11-02T17:20:19.180Z,55.00
2022-11-02T17:22:53.256Z,54.80
2022-11-02T17:25:23.564Z,55.06
2022-11-02T17:27:52.643Z,54.93
2022-11-02T17:30:46.009Z,56.88
2022-11-02T17:33:25.083Z,57.48
2022-11-02T17:35:55.174Z,57.44
2022-11-02T17:38:27.130Z,57.39
2022-11-02T17:40:56.004Z,56.94
2022-11-02T17:43:23.895Z,56.50
2022-11-02T17:45:56.512Z,56.65
2022-11-02T17:48:28.534Z,56.71
2022-11-02T17:51:00.718Z,57.06
2022-11-02T17:53:28.962Z,56.84
2022-11-02T17:55:57.506Z,56.63
2022-11-02T17:58:25.637Z,57.51
2022-11-02T18:00:54.699Z,57.59
2022-11-02T18:03:29.999Z,57.40
2022-11-02T18:06:00.723Z,57.78
2022-11-02T18:08:29.307Z,57.80
2022-11-02T18:10:57.822Z,58.01
2022-11-02T18:13:25.931Z,58.05
2022-11-02T18:15:54.029Z,59.32
2022-11-02T18:18:22.040Z,59.36
2022-11-02T18:20:51.642Z,59.11
2022-11-02T18:23:20.438Z,58.44
2022-11-02T18:25:48.851Z,58.73
2022-11-02T18:28:17.317Z,58.13
2022-11-02T18:30:45.572Z,58.05
2022-11-02T18:33:14.357Z,58.79
2022-11-02T18:35:44.214Z,59.61
2022-11-02T18:38:13.825Z,58.77
2022-11-02T18:40:42.039Z,59.47
2022-11-02T18:43:10.224Z,58.85
2022-11-02T18:45:38.668Z,58.20
2022-11-02T18:48:07.653Z,59.86
2022-11-02T18:50:35.935Z,59.67
2022-11-02T18:53:04.232Z,59.11
2022-11-02T18:55:33.633Z,58.93
2022-11-02T18:58:01.734Z,59.24
2022-11-02T19:00:29.899Z,58.95
2022-11-02T19:02:58.281Z,58.95
2022-11-02T19:05:47.517Z,59.51
2022-11-02T19:08:33.352Z,59.51
2022-11-02T19:11:03.118Z,59.56
2022-11-02T19:13:31.236Z,59.34
2022-11-02T19:16:00.199Z,59.44
2022-11-02T19:18:28.798Z,60.31
2022-11-02T19:20:56.921Z,60.33
2022-11-02T19:23:27.989Z,60.34
2022-11-02T19:25:56.288Z,59.60
2022-11-02T19:28:25.803Z,59.30
2022-11-02T19:30:53.951Z,58.91
2022-11-02T19:33:22.035Z,60.35
2022-11-02T19:35:56.124Z,60.16
2022-11-02T19:38:24.551Z,59.21
2022-11-02T19:41:01.342Z,60.93
2022-11-02T19:43:30.928Z,61.06
2022-11-02T19:46:02.637Z,61.14
2022-11-02T19:48:31.467Z,60.85
2022-11-02T19:51:07.269Z,59.84
2022-11-02T19:53:35.920Z,59.62
2022-11-02T19:56:05.281Z,60.05
2022-11-02T19:58:34.890Z,60.87
2022-11-02T20:01:07.130Z,61.29
2022-11-02T20:03:35.780Z,61.62
2022-11-02T20:06:06.865Z,61.64
2022-11-02T20:08:35.090Z,60.92
2022-11-02T20:11:04.744Z,61.46
2022-11-02T20:13:35.506Z,61.21
2022-11-02T20:16:04.206Z,61.10
2022-11-02T20:18:32.768Z,60.73
2022-11-02T20:21:05.559Z,59.74
2022-11-02T20:23:34.693Z,59.69
2022-11-02T20:26:04.290Z,60.21
2022-11-02T20:28:37.926Z,59.50
2022-11-02T20:31:09.572Z,59.73
2022-11-02T20:33:38.803Z,60.04
2022-11-02T20:36:07.953Z,59.62
2022-11-02T20:38:36.945Z,60.67
2022-11-02T20:41:07.101Z,61.32
2022-11-02T20:43:36.984Z,61.29
2022-11-02T20:46:31.604Z,61.05
2022-11-02T20:48:59.315Z,61.52
2022-11-02T20:51:32.807Z,61.69
2022-11-02T20:54:03.255Z,62.24
2022-11-02T20:56:31.510Z,60.92
2022-11-02T20:59:00.862Z,60.31
2022-11-02T21:01:29.021Z,60.16
2022-11-02T21:03:57.143Z,60.05
2022-11-02T21:06:25.200Z,60.45
2022-11-02T21:08:53.180Z,60.02
2022-11-02T21:11:39.289Z,60.28
2022-11-02T21:14:08.928Z,61.34
2022-11-02T21:16:36.977Z,62.25
2022-11-02T21:19:05.264Z,63.25
2022-11-02T21:21:33.308Z,61.58
2022-11-02T21:24:01.444Z,60.51
2022-11-02T21:26:29.749Z,60.13
2022-11-02T21:28:57.732Z,60.39
2022-11-02T21:31:27.070Z,60.71
2022-11-02T21:33:55.251Z,60.93
2022-11-02T21:36:23.162Z,59.87
2022-11-02T21:38:51.128Z,59.39
2022-11-02T21:41:21.361Z,59.67
2022-11-02T21:43:51.938Z,60.25
2022-11-02T21:46:20.266Z,60.58
2022-11-02T21:48:49.696Z,60.85
2022-11-02T21:51:19.909Z,61.26
2022-11-02T21:53:49.256Z,61.14
2022-11-02T21:56:19.239Z,60.98
2022-11-02T21:58:47.857Z,61.75
2022-11-02T22:01:35.521Z,61.11
2022-11-02T22:04:05.403Z,60.93
2022-11-02T22:06:33.439Z,60.70
2022-11-02T22:09:02.369Z,61.06
2022-11-02T22:11:30.279Z,60.74
2022-11-02T22:13:59.766Z,60.94
2022-11-02T22:16:29.395Z,60.72
2022-11-02T22:18:59.276Z,60.09
2022-11-02T22:21:30.940Z,61.30
2022-11-02T22:23:59.201Z,61.56
2022-11-02T22:26:29.236Z,61.90
2022-11-02T22:28:58.291Z,61.58
2022-11-02T22:31:28.225Z,61.88
2022-11-02T22:33:58.127Z,62.29
2022-11-02T22:36:29.755Z,62.12
2022-11-02T22:38:59.105Z,60.72
2022-11-02T22:41:29.403Z,59.62
2022-11-02T22:43:59.433Z,60.00
2022-11-02T22:46:28.596Z,60.29
2022-11-02T22:48:58.109Z,61.43
2022-11-02T22:51:28.036Z,61.01
2022-11-02T22:54:01.755Z,59.98
2022-11-02T22:56:30.036Z,60.61
2022-11-02T22:58:59.452Z,59.80
2022-11-02T23:01:28.963Z,60.89
2022-11-02T23:03:57.815Z,61.84
2022-11-02T23:06:26.915Z,61.82
2022-11-02T23:08:59.089Z,61.64
2022-11-02T23:11:28.248Z,61.07
2022-11-02T23:13:58.237Z,61.09
2022-11-02T23:16:28.329Z,60.24
2022-11-02T23:19:20.319Z,60.08
2022-11-02T23:22:10.437Z,60.17
2022-11-02T23:24:58.771Z,60.85
2022-11-02T23:27:27.625Z,60.15
2022-11-02T23:30:13.193Z,60.67
2022-11-02T23:32:41.235Z,59.89
2022-11-02T23:35:35.470Z,62.11
2022-11-02T23:38:07.641Z,61.79
2022-11-02T23:40:37.265Z,62.68
2022-11-02T23:43:07.958Z,62.30
2022-11-02T23:45:36.797Z,61.79
2022-11-02T23:48:07.280Z,60.77
2022-11-02T23:50:53.525Z,60.36
2022-11-02T23:53:41.453Z,60.21
2022-11-02T23:56:33.033Z,61.54
2022-11-02T23:59:07.344Z,61.72
